Terminal Aerodrome Forecast
Issued by NWS Cleveland, OH

Home | Current Version | Previous Version | Text Only | Print | Product List | Glossary On
Versions: 1 2 3 4 5 6 7 8 9 10 11 12 13 14 15 16 17
000
FTUS41 KCLE 161700
TAFMFD
TAF
KMFD 161728Z 1618/1718 15015G25KT P6SM VCSH OVC025
      TEMPO 1618/1622 -SHRA OVC015
     FM170500 20006KT P6SM BKN006 OVC014
     FM170700 20005KT P6SM OVC003
     FM171400 31005KT P6SM OVC007
     FM171600 32005KT P6SM OVC015
     FM171700 31006KT P6SM SKC=

USA.gov is the U.S. government's official web portal to all federal, state and local government web resources and services.